Station Historical Data
Daily Summary for October 28, 2017 Units:  English    Metric   Both
« Previous Day
Next Day »
Daily Weekly Monthly Yearly Custom
  High: Low: Average:
Temperature: 62.1 °F 41.0 °F 53.7 °F
Dew Point: 57.2 °F 38.0 °F 48.4 °F
Humidity: 93% 56% 84%
Wind Speed: 4.6mph 0.0mph 0.5mph
Wind Gust: 5.0mph - -
Wind- - WSW
Pressure: 29.99 in 29.78 in -
Precipitation: 1.17 in    
Historical Graphs
 
 
Tabular Data for October 28, 2017
Time Temperature Dew Point Pressure Wind Wind Speed Wind Gust Humidity Rainfall Rate (Hourly) Conditions
00:03 61.7 °F 47.2 °F 29.99 in NNW 1.2 mph 1.2 mph 59% 0.00 in BKN
00:08 61.7 °F 47.2 °F 29.98 in NW 1.0 mph   59% 0.00 in BKN
00:14 61.8 °F 46.9 °F 29.98 in WNW 1.2 mph 1.2 mph 58% 0.00 in BKN
00:19 61.9 °F 46.5 °F 29.98 in NE 1.2 mph   57% 0.00 in BKN
00:24 62.0 °F 47.0 °F 29.98 in Calm     58% 0.00 in BKN
00:29 62.0 °F 47.0 °F 29.97 in Calm     58% 0.00 in BKN
00:34 62.0 °F 46.6 °F 29.97 in NW 1.2 mph 1.2 mph 57% 0.00 in BKN
00:39 62.1 °F 46.2 °F 29.97 in North 1.2 mph 1.2 mph 56% 0.00 in BKN
00:44 62.1 °F 46.7 °F 29.96 in Calm     57% 0.00 in BKN
00:49 62.0 °F 46.6 °F 29.96 in NW 1.2 mph   57% 0.00 in BKN
00:54 62.0 °F 47.0 °F 29.96 in Calm     58% 0.00 in BKN
00:59 61.9 °F 46.5 °F 29.96 in Calm     57% 0.00 in BKN
01:05 61.8 °F 46.4 °F 29.96 in Calm     57% 0.00 in OVC
01:10 61.7 °F 46.8 °F 29.96 in Calm     58% 0.00 in OVC
01:15 61.6 °F 46.7 °F 29.96 in Calm     58% 0.00 in OVC
01:20 61.6 °F 46.7 °F 29.95 in Calm   1.0 mph 58% 0.00 in OVC
01:25 61.6 °F 47.1 °F 29.95 in Calm     59% 0.00 in OVC
01:30 61.5 °F 46.6 °F 29.95 in NNW 1.2 mph 1.2 mph 58% 0.00 in OVC
01:35 61.6 °F 46.7 °F 29.95 in Calm   1.0 mph 58% 0.00 in OVC
01:40 61.5 °F 46.6 °F 29.95 in Calm   1.0 mph 58% 0.00 in OVC
01:45 61.5 °F 46.6 °F 29.95 in Calm   1.0 mph 58% 0.00 in OVC
01:50 61.4 °F 46.5 °F 29.95 in Calm   1.0 mph 58% 0.00 in OVC
01:55 61.4 °F 46.5 °F 29.95 in Calm   1.0 mph 58% 0.00 in OVC
02:00 61.4 °F 46.9 °F 29.95 in Calm   1.0 mph 59% 0.00 in OVC
02:05 61.3 °F 46.4 °F 29.94 in Calm   1.0 mph 58% 0.00 in BKN
02:10 61.3 °F 46.4 °F 29.94 in Calm   1.0 mph 58% 0.00 in BKN
02:15 61.4 °F 46.0 °F 29.95 in Calm   0.1 mph 57% 0.00 in BKN
02:20 61.4 °F 46.5 °F 29.94 in Calm   1.0 mph 58% 0.00 in BKN
02:25 61.3 °F 46.4 °F 29.94 in Calm   1.0 mph 58% 0.00 in BKN
02:30 61.4 °F 46.4 °F 29.94 in Calm   1.0 mph 58% 0.00 in BKN
02:35 61.3 °F 46.4 °F 29.94 in Calm   1.0 mph 58% 0.00 in BKN
02:40 61.2 °F 46.8 °F 29.94 in Calm   1.0 mph 59% 0.00 in BKN
02:45 61.2 °F 46.3 °F 29.94 in Calm   1.0 mph 58% 0.00 in BKN
02:50 61.1 °F 46.7 °F 29.94 in Calm     59% 0.00 in BKN
02:55 61.1 °F 47.1 °F 29.94 in Calm   1.0 mph 60% 0.00 in BKN
03:00 60.9 °F 47.4 °F 29.94 in Calm   1.0 mph 61% 0.00 in BKN
03:05 60.8 °F 47.3 °F 29.94 in Calm   1.0 mph 61% 0.00 in OVC
03:10 60.7 °F 47.2 °F 29.93 in Calm   1.0 mph 61% 0.00 in OVC
03:15 60.6 °F 47.1 °F 29.94 in Calm     61% 0.00 in OVC
03:20 60.5 °F 47.4 °F 29.93 in Calm   1.0 mph 62% 0.00 in OVC
03:25 60.5 °F 47.4 °F 29.93 in Calm     62% 0.00 in OVC
03:30 60.4 °F 47.3 °F 29.93 in Calm   1.0 mph 62% 0.00 in OVC
03:35 60.3 °F 47.6 °F 29.93 in Calm     63% 0.00 in OVC
03:40 60.1 °F 47.5 °F 29.93 in Calm   1.0 mph 63% 0.00 in OVC
03:45 60.0 °F 47.8 °F 29.93 in Calm   1.0 mph 64% 0.00 in OVC
03:50 60.0 °F 47.8 °F 29.92 in NW 1.0 mph 1.0 mph 64% 0.00 in OVC
03:55 59.9 °F 47.7 °F 29.92 in Calm   1.0 mph 64% 0.00 in OVC
04:00 59.8 °F 48.0 °F 29.92 in Calm   1.0 mph 65% 0.00 in OVC
04:05 59.6 °F 47.9 °F 29.93 in Calm     65% 0.00 in OVC
04:10 59.5 °F 48.1 °F 29.93 in Calm   1.0 mph 66% 0.00 in OVC
04:15 59.5 °F 47.7 °F 29.92 in Calm   1.0 mph 65% 0.00 in OVC
04:20 59.5 °F 48.5 °F 29.91 in Calm   1.0 mph 67% 0.00 in OVC
04:25 59.4 °F 48.0 °F 29.91 in Calm     66% 0.00 in OVC
04:30 59.4 °F 48.0 °F 29.92 in Calm     66% 0.00 in OVC
04:35 59.4 °F 48.0 °F 29.92 in Calm     66% 0.00 in OVC
04:40 59.4 °F 48.0 °F 29.92 in NNW 1.2 mph   66% 0.00 in OVC
04:45 59.3 °F 47.9 °F 29.92 in Calm     66% 0.00 in -DZ
04:50 59.3 °F 48.3 °F 29.91 in NNW 1.2 mph 1.2 mph 67% 0.00 in OVC
04:55 59.2 °F 48.6 °F 29.91 in Calm     68% 0.00 in OVC
05:00 59.0 °F 49.2 °F 29.91 in Calm     70% 0.00 in OVC
05:03 58.7 °F 49.7 °F 29.91 in Calm     72% 0.00 in -RA
05:08 58.3 °F 49.7 °F 29.91 in Calm     73% 0.00 in -RA
05:13 58.0 °F 49.4 °F 29.91 in Calm     73% 0.00 in -RA
05:19 57.8 °F 50.3 °F 29.91 in Calm     76% 0.00 in -RA
05:24 57.5 °F 50.3 °F 29.91 in Calm     77% 0.00 in -RA
05:29 57.0 °F 50.9 °F 29.91 in Calm     80% 0.00 in -RA
05:34 56.6 °F 50.8 °F 29.91 in NNW 1.2 mph   81% 0.00 in BKN
05:39 56.4 °F 50.6 °F 29.91 in Calm     81% 0.00 in BKN
05:44 56.3 °F 50.5 °F 29.91 in Calm     81% 0.00 in BKN
05:49 56.3 °F 50.5 °F 29.91 in Calm     81% 0.00 in BKN
05:54 56.3 °F 50.9 °F 29.91 in Calm     82% 0.00 in BKN
05:59 56.3 °F 50.9 °F 29.91 in Calm     82% 0.00 in BKN
06:05 56.3 °F 50.9 °F 29.91 in Calm   1.0 mph 82% 0.00 in BKN
06:15 56.3 °F 50.9 °F 29.91 in Calm     82% 0.00 in BKN
06:20 56.3 °F 50.5 °F 29.91 in Calm     81% 0.00 in BKN
06:25 56.4 °F 50.6 °F 29.92 in Calm     81% 0.00 in BKN
06:30 56.3 °F 50.9 °F 29.92 in Calm     82% 0.00 in BKN
06:35 56.3 °F 50.9 °F 29.92 in Calm     82% 0.00 in BKN
06:40 56.2 °F 50.8 °F 29.92 in Calm     82% 0.00 in BKN
06:45 56.2 °F 51.1 °F 29.91 in Calm     83% 0.00 in BKN
06:50 56.2 °F 51.4 °F 29.91 in Calm     84% 0.00 in BKN
06:55 56.1 °F 51.0 °F 29.91 in Calm     83% 0.00 in BKN
07:00 56.1 °F 51.0 °F 29.92 in Calm     83% 0.00 in BKN
07:05 56.1 °F 51.0 °F 29.91 in Calm     83% 0.00 in OVC
07:10 56.2 °F 51.1 °F 29.91 in Calm     83% 0.00 in OVC
07:15 56.3 °F 51.2 °F 29.91 in Calm     83% 0.00 in OVC
07:20 56.3 °F 51.2 °F 29.92 in Calm     83% 0.00 in OVC
07:25 56.3 °F 51.2 °F 29.91 in Calm     83% 0.00 in OVC
07:30 56.3 °F 51.5 °F 29.91 in Calm     84% 0.00 in OVC
07:35 56.2 °F 51.1 °F 29.91 in Calm     83% 0.00 in OVC
07:40 56.3 °F 51.2 °F 29.91 in Calm     83% 0.00 in OVC
07:45 56.3 °F 51.2 °F 29.91 in Calm     83% 0.00 in OVC
07:50 56.2 °F 51.1 °F 29.91 in Calm   1.0 mph 83% 0.00 in OVC
07:55 56.3 °F 51.5 °F 29.91 in Calm     84% 0.00 in OVC
08:00 56.3 °F 51.2 °F 29.92 in Calm   1.0 mph 83% 0.00 in OVC
08:05 56.3 °F 51.5 °F 29.91 in Calm     84% 0.00 in OVC
08:10 56.2 °F 51.7 °F 29.91 in Calm     85% 0.00 in OVC
08:15 56.0 °F 51.9 °F 29.91 in Calm     86% 0.00 in OVC
08:20 55.9 °F 51.7 °F 29.92 in Calm     86% 0.00 in OVC
08:25 55.7 °F 51.8 °F 29.91 in Calm     87% 0.00 in OVC
08:30 55.5 °F 51.7 °F 29.91 in Calm     87% 0.00 in OVC
08:35 55.5 °F 52.0 °F 29.91 in Calm     88% 0.00 in OVC
08:40 55.4 °F 52.2 °F 29.91 in Calm     89% 0.00 in OVC
08:45 55.4 °F 52.2 °F 29.90 in Calm     89% 0.00 in OVC
08:50 55.4 °F 52.5 °F 29.90 in Calm     90% 0.00 in OVC
08:55 55.4 °F 52.5 °F 29.90 in Calm     90% 0.00 in OVC
09:00 55.4 °F 52.5 °F 29.90 in Calm     90% 0.00 in OVC
09:05 55.4 °F 52.5 °F 29.90 in Calm     90% 0.00 in -RA
09:10 55.4 °F 52.5 °F 29.90 in Calm     90% 0.00 in -RA
09:15 55.4 °F 52.5 °F 29.90 in Calm     90% 0.00 in -RA
09:20 55.5 °F 52.6 °F 29.90 in Calm     90% 0.00 in -RA
09:25 55.5 °F 52.6 °F 29.90 in Calm     90% 0.00 in -RA
09:30 55.6 °F 52.7 °F 29.90 in Calm     90% 0.00 in -RA
09:35 55.6 °F 52.7 °F 29.90 in Calm     90% 0.01 in -RA
09:40 55.6 °F 52.7 °F 29.90 in Calm     90% 0.01 in -RA
09:45 55.7 °F 53.1 °F 29.91 in Calm     91% 0.01 in -RA
09:50 55.7 °F 53.1 °F 29.90 in Calm     91% 0.01 in -RA
09:55 55.8 °F 53.2 °F 29.90 in Calm     91% 0.01 in -RA
10:00 55.8 °F 53.2 °F 29.90 in Calm     91% 0.01 in -RA
10:05 55.9 °F 53.3 °F 29.90 in Calm     91% 0.01 in -RA
10:10 55.9 °F 53.3 °F 29.90 in Calm     91% 0.02 in -RA
10:15 56.0 °F 53.4 °F 29.90 in Calm     91% 0.02 in -RA
10:21 56.1 °F 53.8 °F 29.89 in Calm     92% 0.02 in -RA
10:26 56.2 °F 53.6 °F 29.89 in Calm     91% 0.02 in -RA
10:31 56.3 °F 54.0 °F 29.89 in Calm     92% 0.02 in OVC
10:36 56.4 °F 54.1 °F 29.89 in Calm     92% 0.01 in OVC
10:41 56.5 °F 54.2 °F 29.88 in North 1.2 mph   92% 0.01 in OVC
10:46 56.6 °F 54.3 °F 29.88 in Calm     92% 0.01 in OVC
10:51 56.6 °F 54.3 °F 29.88 in Calm     92% 0.01 in OVC
10:56 56.7 °F 54.4 °F 29.88 in Calm     92% 0.01 in OVC
11:02 56.7 °F 54.4 °F 29.88 in Calm     92% 0.01 in -RA
11:07 56.8 °F 54.5 °F 29.87 in Calm     92% 0.01 in -RA
11:12 57.0 °F 54.7 °F 29.87 in North 1.2 mph 1.2 mph 92% 0.00 in -RA
11:17 57.2 °F 54.9 °F 29.87 in Calm     92% 0.00 in -RA
11:22 57.4 °F 55.1 °F 29.88 in Calm     92% 0.00 in -RA
11:27 57.5 °F 55.2 °F 29.88 in Calm     92% 0.00 in -RA
11:32 57.6 °F 55.3 °F 29.87 in Calm     92% 0.00 in -RA
11:37 57.6 °F 55.0 °F 29.87 in Calm     91% 0.00 in -RA
11:42 57.7 °F 55.4 °F 29.87 in Calm     92% 0.00 in -RA
11:48 57.8 °F 55.2 °F 29.87 in Calm     91% 0.00 in -RA
11:53 57.8 °F 55.5 °F 29.87 in Calm     92% 0.01 in -RA
11:58 57.9 °F 55.6 °F 29.86 in Calm     92% 0.01 in -RA
12:03 57.9 °F 55.6 °F 29.86 in Calm     92% 0.01 in -RA
12:08 58.0 °F 55.7 °F 29.86 in Calm     92% 0.01 in -RA
12:13 58.2 °F 55.9 °F 29.86 in Calm     92% 0.01 in -RA
12:18 58.4 °F 56.1 °F 29.85 in Calm     92% 0.01 in -RA
12:23 58.4 °F 56.1 °F 29.85 in Calm     92% 0.01 in -RA
12:28 58.4 °F 56.1 °F 29.85 in Calm     92% 0.01 in -RA
12:33 58.6 °F 56.3 °F 29.85 in Calm     92% 0.01 in -RA
12:38 58.7 °F 56.4 °F 29.85 in Calm     92% 0.01 in -RA
12:40 58.8 °F 56.5 °F 29.85 in Calm     92% 0.01 in -RA
12:45 58.9 °F 56.6 °F 29.85 in Calm     92% 0.01 in -RA
12:47 58.9 °F 56.6 °F 29.85 in Calm     92% 0.01 in -RA
12:52 59.0 °F 56.7 °F 29.85 in Calm     92% 0.00 in -RA
12:57 59.0 °F 56.7 °F 29.84 in Calm     92% 0.00 in -RA
13:02 59.2 °F 56.9 °F 29.84 in Calm     92% 0.00 in -RA
13:07 59.3 °F 57.0 °F 29.84 in Calm     92% 0.00 in -RA
13:12 59.3 °F 57.0 °F 29.84 in Calm     92% 0.00 in -RA
13:17 59.3 °F 57.0 °F 29.83 in Calm     92% 0.00 in -RA
13:23 59.3 °F 57.0 °F 29.83 in Calm     92% 0.00 in -RA
13:28 59.3 °F 57.0 °F 29.82 in Calm     92% 0.01 in -RA
13:33 59.4 °F 57.1 °F 29.82 in Calm     92% 0.01 in -RA
13:38 59.5 °F 57.2 °F 29.83 in ENE 1.2 mph 1.2 mph 92% 0.01 in -RA
13:43 59.5 °F 57.2 °F 29.82 in Calm     92% 0.02 in -RA
13:48 59.1 °F 56.8 °F 29.82 in NNW 1.2 mph   92% 0.02 in -RA
13:53 58.3 °F 55.4 °F 29.82 in SW 3.5 mph 3.5 mph 90% 0.03 in -RA
13:58 57.5 °F 54.6 °F 29.82 in SW 1.2 mph   90% 0.04 in -RA
14:03 56.8 °F 53.9 °F 29.82 in West 3.5 mph 3.5 mph 90% 0.05 in -RA
14:08 56.2 °F 53.3 °F 29.82 in WNW 1.0 mph   90% 0.06 in -RA
14:14 55.6 °F 52.7 °F 29.82 in South 1.2 mph   90% 0.06 in -RA
14:19 55.3 °F 52.4 °F 29.82 in South 1.2 mph   90% 0.06 in -RA
14:24 55.0 °F 52.1 °F 29.81 in East 1.2 mph 1.2 mph 90% 0.07 in -RA
14:29 54.8 °F 52.2 °F 29.81 in Calm     91% 0.06 in -RA
14:34 54.5 °F 51.9 °F 29.81 in West 1.2 mph   91% 0.06 in -RA
14:39 54.3 °F 51.7 °F 29.81 in North 1.2 mph   91% 0.05 in -RA
14:44 54.2 °F 51.6 °F 29.81 in West 1.2 mph 1.2 mph 91% 0.05 in -RA
14:49 54.0 °F 51.4 °F 29.81 in Calm     91% 0.05 in -RA
14:54 53.9 °F 51.3 °F 29.81 in WNW 1.2 mph 1.2 mph 91% 0.03 in -RA
14:59 53.8 °F 51.2 °F 29.80 in West 1.2 mph   91% 0.03 in -RA
15:04 53.7 °F 51.4 °F 29.80 in Calm     92% 0.02 in -RA
15:09 53.7 °F 51.4 °F 29.80 in West 1.2 mph   92% 0.01 in -RA
15:14 53.6 °F 51.3 °F 29.80 in Calm     92% 0.01 in -RA
15:19 53.6 °F 51.3 °F 29.80 in West 1.2 mph 1.2 mph 92% 0.01 in -RA
15:25 53.7 °F 51.4 °F 29.80 in Calm     92% 0.00 in -RA
15:30 53.6 °F 51.3 °F 29.81 in West 1.2 mph 1.2 mph 92% 0.00 in -RA
15:35 53.6 °F 51.3 °F 29.81 in Calm   1.0 mph 92% 0.00 in -RA
15:40 53.4 °F 51.1 °F 29.81 in Calm   2.0 mph 92% 0.00 in -RA
15:45 53.1 °F 50.8 °F 29.80 in Calm   2.0 mph 92% 0.00 in -RA
15:50 52.8 °F 50.2 °F 29.80 in WNW 1.2 mph   91% 0.00 in -RA
15:55 52.6 °F 50.0 °F 29.80 in West 1.0 mph   91% 0.00 in -RA
16:00 52.4 °F 50.2 °F 29.79 in Calm   1.0 mph 92% 0.00 in -RA
16:05 52.3 °F 50.0 °F 29.80 in Calm   1.0 mph 92% 0.00 in -RA
16:10 52.1 °F 49.8 °F 29.79 in Calm   2.0 mph 92% 0.01 in -RA
16:15 51.8 °F 49.5 °F 29.80 in Calm   1.0 mph 92% 0.01 in -RA
16:20 51.6 °F 49.4 °F 29.80 in Calm   1.0 mph 92% 0.11 in -RA
16:25 51.5 °F 49.2 °F 29.81 in Calm   2.0 mph 92% 0.02 in +RA
16:30 51.3 °F 49.0 °F 29.81 in Calm   2.0 mph 92% 0.01 in +RA
16:35 51.0 °F 48.8 °F 29.80 in Calm   2.0 mph 92% 0.01 in +RA
16:40 50.8 °F 48.6 °F 29.80 in Calm   1.0 mph 92% 0.01 in +RA
16:45 50.5 °F 48.3 °F 29.80 in Calm   1.0 mph 92% 0.01 in +RA
16:50 50.3 °F 48.1 °F 29.80 in Calm   2.0 mph 92% 0.08 in +RA
16:55 50.3 °F 48.1 °F 29.80 in Calm   1.0 mph 92% 0.00 in RA
17:00 50.1 °F 47.9 °F 29.79 in Calm   1.0 mph 92% 0.00 in RA
17:05 50.0 °F 47.8 °F 29.80 in Calm   1.0 mph 92% 0.07 in RA
17:10 49.9 °F 47.7 °F 29.80 in WNW 1.2 mph 1.2 mph 92% 0.69 in RA
17:15 49.8 °F 47.9 °F 29.81 in Calm   1.0 mph 93% 0.05 in RA
17:20 49.8 °F 47.9 °F 29.81 in Calm   1.0 mph 93% 0.01 in RA
17:25 49.6 °F 47.3 °F 29.82 in WNW 1.0 mph 1.0 mph 92% 0.00 in RA
17:30 49.3 °F 47.0 °F 29.83 in Calm   1.0 mph 92% 0.01 in RA
17:35 49.0 °F 46.8 °F 29.80 in Calm   3.0 mph 92% 0.05 in RA
17:40 48.7 °F 46.5 °F 29.78 in Calm   1.0 mph 92% 0.00 in OVC
17:45 48.6 °F 46.4 °F 29.80 in Calm   2.0 mph 92% 0.02 in OVC
17:50 48.5 °F 46.3 °F 29.81 in Calm   2.0 mph 92% 0.00 in OVC
17:55 48.4 °F 46.2 °F 29.81 in Calm   3.0 mph 92% 0.00 in OVC
18:00 48.2 °F 46.0 °F 29.81 in SE 2.3 mph 2.3 mph 92% 0.21 in OVC
18:05 48.0 °F 45.8 °F 29.80 in Calm   3.0 mph 92% 0.00 in -RA
18:10 47.7 °F 45.5 °F 29.81 in SSE 1.0 mph 3.0 mph 92% 0.01 in -RA
18:15 47.4 °F 45.2 °F 29.80 in Calm   3.0 mph 92% 0.00 in -RA
18:20 47.2 °F 45.0 °F 29.81 in West 1.0 mph 3.0 mph 92% 0.00 in -RA
18:25 47.0 °F 44.8 °F 29.81 in WNW 2.3 mph 2.3 mph 92% 0.10 in -RA
18:30 46.8 °F 44.6 °F 29.80 in Calm   2.0 mph 92% 0.00 in -RA
18:35 46.8 °F 44.6 °F 29.81 in Calm   2.0 mph 92% 0.00 in -RA
18:40 46.7 °F 44.5 °F 29.81 in Calm   2.0 mph 92% 0.00 in -RA
18:45 46.7 °F 44.5 °F 29.81 in Calm   2.0 mph 92% 0.00 in -RA
18:50 46.7 °F 44.5 °F 29.82 in Calm   1.0 mph 92% 0.00 in OVC
18:55 46.6 °F 44.4 °F 29.82 in Calm   2.0 mph 92% 0.02 in RA
19:00 46.5 °F 44.3 °F 29.82 in Calm   2.0 mph 92% 0.01 in RA
19:05 46.4 °F 44.2 °F 29.81 in WNW 1.2 mph 1.2 mph 92% 0.05 in -RA
19:10 46.3 °F 44.1 °F 29.81 in SW 1.2 mph 1.2 mph 92% 0.06 in -RA
19:15 46.1 °F 43.9 °F 29.82 in NW 1.2 mph   92% 0.05 in -RA
19:20 46.0 °F 43.8 °F 29.82 in Calm   2.0 mph 92% 0.01 in -RA
19:25 45.9 °F 43.7 °F 29.82 in West 1.0 mph 5.0 mph 92% 0.01 in -RA
19:30 45.8 °F 43.6 °F 29.82 in Calm   2.0 mph 92% 0.00 in -RA
19:35 45.6 °F 43.4 °F 29.82 in West 1.2 mph 1.2 mph 92% 0.08 in -RA
19:40 45.4 °F 43.2 °F 29.83 in West 1.0 mph 1.0 mph 92% 0.10 in -RA
19:45 45.2 °F 43.0 °F 29.82 in West 1.2 mph 1.2 mph 92% 0.11 in -RA
19:50 44.9 °F 42.7 °F 29.82 in Calm     92% 0.11 in -RA
19:55 44.8 °F 42.6 °F 29.84 in Calm     92% 0.10 in -RA
20:00 44.8 °F 42.6 °F 29.84 in WNW 2.3 mph 2.3 mph 92% 0.10 in -RA
20:05 44.5 °F 42.3 °F 29.83 in West 1.2 mph 1.2 mph 92% 0.09 in -RA
20:10 44.5 °F 42.3 °F 29.83 in WSW 2.3 mph 2.3 mph 92% 0.08 in -RA
20:15 44.4 °F 42.2 °F 29.83 in NE 1.2 mph 1.2 mph 92% 0.08 in -RA
20:21 44.3 °F 42.1 °F 29.83 in South 2.3 mph 2.3 mph 92% 0.07 in -RA
20:26 44.1 °F 41.9 °F 29.83 in WSW 3.5 mph 3.5 mph 92% 0.07 in -RA
20:31 44.0 °F 41.8 °F 29.83 in SW 2.3 mph 2.3 mph 92% 0.05 in -RA
20:36 43.9 °F 41.7 °F 29.84 in West 1.2 mph 1.2 mph 92% 0.04 in -RA
20:41 43.8 °F 41.6 °F 29.84 in WSW 2.3 mph 2.3 mph 92% 0.03 in -RA
20:46 43.9 °F 41.7 °F 29.85 in South 1.0 mph 1.0 mph 92% 0.02 in -RA
20:51 43.8 °F 41.6 °F 29.84 in SW 2.0 mph 2.0 mph 92% 0.01 in OVC
20:56 43.8 °F 41.6 °F 29.84 in SSE 1.2 mph 1.2 mph 92% 0.01 in OVC
21:01 43.8 °F 41.6 °F 29.84 in ESE 3.5 mph 3.5 mph 92% 0.00 in OVC
21:06 43.7 °F 41.5 °F 29.85 in NW 3.5 mph 3.5 mph 92% 0.00 in OVC
21:12 43.6 °F 41.4 °F 29.85 in West 1.0 mph 1.0 mph 92% 0.00 in OVC
21:17 43.3 °F 41.1 °F 29.84 in NNW 1.2 mph 1.2 mph 92% 0.00 in OVC
21:22 43.2 °F 41.0 °F 29.84 in West 1.2 mph   92% 0.00 in OVC
21:27 43.1 °F 40.9 °F 29.84 in East 4.6 mph 4.6 mph 92% 0.00 in OVC
21:32 42.9 °F 40.7 °F 29.84 in West 1.2 mph 1.2 mph 92% 0.00 in OVC
21:37 42.8 °F 40.6 °F 29.85 in SW 1.2 mph 1.2 mph 92% 0.00 in OVC
21:42 42.6 °F 40.4 °F 29.84 in East 1.2 mph 1.2 mph 92% 0.00 in OVC
21:47 42.4 °F 40.0 °F 29.84 in West 2.3 mph 2.3 mph 91% 0.00 in OVC
21:52 42.3 °F 39.9 °F 29.85 in Calm     91% 0.00 in OVC
21:58 42.3 °F 39.9 °F 29.85 in SE 1.2 mph 1.2 mph 91% 0.00 in OVC
22:08 42.1 °F 39.7 °F 29.85 in WNW 2.3 mph 2.3 mph 91% 0.00 in OVC
22:13 42.0 °F 39.6 °F 29.84 in WSW 1.2 mph 1.2 mph 91% 0.00 in OVC
22:18 41.9 °F 39.5 °F 29.84 in West 3.5 mph 3.5 mph 91% 0.00 in OVC
22:23 41.9 °F 39.5 °F 29.84 in West 1.2 mph 1.2 mph 91% 0.00 in OVC
22:28 41.8 °F 39.4 °F 29.84 in East 2.3 mph 2.3 mph 91% 0.00 in OVC
22:33 41.7 °F 39.3 °F 29.84 in Calm   0.7 mph 91% 0.00 in OVC
22:39 41.6 °F 39.2 °F 29.84 in SW 1.0 mph 1.0 mph 91% 0.00 in OVC
22:44 41.5 °F 39.1 °F 29.84 in WNW 2.0 mph 2.0 mph 91% 0.00 in OVC
22:49 41.5 °F 39.1 °F 29.84 in West 1.2 mph 1.2 mph 91% 0.00 in OVC
22:54 41.5 °F 39.1 °F 29.84 in SW 1.2 mph 1.2 mph 91% 0.00 in OVC
22:59 41.3 °F 38.6 °F 29.84 in WNW 3.5 mph 3.5 mph 90% 0.00 in OVC
23:04 41.3 °F 38.6 °F 29.84 in West 4.6 mph 4.6 mph 90% 0.00 in OVC
23:09 41.2 °F 38.5 °F 29.84 in WNW 1.2 mph 1.2 mph 90% 0.00 in OVC
23:16 41.2 °F 38.5 °F 29.84 in WNW 4.6 mph   90% 0.00 in OVC
23:21 41.2 °F 38.5 °F 29.84 in Calm     90% 0.00 in OVC
23:26 41.1 °F 38.4 °F 29.84 in West 2.3 mph 2.3 mph 90% 0.00 in OVC
23:27 41.1 °F 38.4 °F 29.84 in WNW 2.3 mph 2.3 mph 90% 0.00 in OVC
23:28 41.1 °F 38.4 °F 29.84 in WNW 1.0 mph 1.0 mph 90% 0.00 in OVC
23:29 41.1 °F 38.4 °F 29.84 in WNW 1.2 mph   90% 0.00 in OVC
23:35 41.1 °F 38.1 °F 29.85 in WSW 3.5 mph 3.5 mph 89% 0.00 in OVC
23:42 41.1 °F 38.1 °F 29.85 in WNW 2.0 mph 2.0 mph 89% 0.00 in OVC
23:47 41.1 °F 38.1 °F 29.85 in WNW 3.5 mph 3.5 mph 89% 0.00 in OVC
23:52 41.0 °F 38.0 °F 29.85 in West 1.2 mph 1.2 mph 89% 0.00 in OVC
23:57 41.0 °F 38.0 °F 29.84 in NE 2.3 mph 2.3 mph 89% 0.00 in OVC
Piedmont Bend
Compliments of Weather Underground - 4 mb